Time;durP1;ratioP1;P1;durP2;ratioP2;P2;SDS_P1;SDS_P2;PMS_P1;PMS_P2;Temp;Humidity;BMP_temperature;BMP_pressure;BME280_temperature;BME280_humidity;BME280_pressure;Samples;Min_cycle;Max_cycle;Signal;HPM_P1;HPM_P2
2023/08/16 00:00:54;;;;;;;;;;;22.70;58.50;;;;;;4997141;28;19918;-70
2023/08/16 00:03:19;;;;;;;;;;;22.70;58.40;;;;;;5013830;28;19924;-70
2023/08/16 00:05:45;;;;;;;;;;;22.70;58.30;;;;;;4995006;28;19910;-70
2023/08/16 00:08:11;;;;;;;;;;;22.60;58.30;;;;;;4977774;28;20490;-71
2023/08/16 00:10:37;;;;;;;;;;;22.50;58.30;;;;;;4995115;28;19913;-70
2023/08/16 00:13:02;;;;;;;;;;;22.50;58.40;;;;;;4995227;28;19925;-70
2023/08/16 00:15:27;;;;;;;;;;;22.40;58.30;;;;;;4995801;28;19914;-70
2023/08/16 00:17:53;;;;;;;;;;;22.30;58.40;;;;;;5014627;28;19925;-70
2023/08/16 00:20:19;;;;;;;;;;;22.30;58.40;;;;;;5014415;28;19910;-70
2023/08/16 00:22:45;;;;;;;;;;;22.30;58.50;;;;;;4996792;28;19922;-69
2023/08/16 00:25:11;;;;;;;;;;;22.20;58.50;;;;;;5014556;28;19921;-70
2023/08/16 00:27:37;;;;;;;;;;;22.20;58.60;;;;;;4997055;28;20020;-70
2023/08/16 00:30:04;;;;;;;;;;;22.10;58.60;;;;;;4998069;28;20308;-77
2023/08/16 00:32:29;;;;;;;;;;;22.00;58.70;;;;;;5003456;28;19924;-78
2023/08/16 00:34:55;;;;;;;;;;;22.00;58.70;;;;;;5000557;28;19910;-77
2023/08/16 00:37:20;;;;;;;;;;;22.00;58.80;;;;;;5018195;28;19929;-74
2023/08/16 00:39:46;;;;;;;;;;;21.90;58.90;;;;;;5022311;28;20373;-77
2023/08/16 00:42:11;;;;;;;;;;;21.80;59.10;;;;;;5021947;28;20253;-78
2023/08/16 00:44:37;;;;;;;;;;;21.80;59.10;;;;;;5006356;28;19909;-77
2023/08/16 00:47:03;;;;;;;;;;;21.80;59.10;;;;;;5023078;28;19982;-77
2023/08/16 00:49:28;;;;;;;;;;;21.80;59.20;;;;;;5003608;28;19917;-77
2023/08/16 00:51:54;;;;;;;;;;;21.80;59.70;;;;;;5020814;28;19925;-77
2023/08/16 00:54:20;;;;;;;;;;;21.80;60.00;;;;;;5021559;28;19916;-78
2023/08/16 00:56:45;;;;;;;;;;;21.70;60.00;;;;;;5024384;28;19995;-74
2023/08/16 00:59:11;;;;;;;;;;;21.70;59.90;;;;;;5033226;28;19995;-78
2023/08/16 01:01:37;;;;;;;;;;;21.70;59.90;;;;;;5029870;28;19956;-77
2023/08/16 01:04:04;;;;;;;;;;;21.70;59.90;;;;;;5024696;28;19909;-77
2023/08/16 01:06:30;;;;;;;;;;;21.60;59.80;;;;;;5027205;28;19910;-79
2023/08/16 01:08:55;;;;;;;;;;;21.50;59.80;;;;;;5031817;28;19904;-75
2023/08/16 01:11:29;;;;;;;;;;;21.50;59.90;;;;;;5034411;28;19914;-75
2023/08/16 01:14:02;;;;;;;;;;;21.40;59.80;;;;;;5035226;28;19981;-77
2023/08/16 01:16:28;;;;;;;;;;;21.40;59.90;;;;;;5035101;28;19915;-79
2023/08/16 01:18:54;;;;;;;;;;;21.30;59.80;;;;;;5034978;28;19917;-77
2023/08/16 01:21:20;;;;;;;;;;;21.30;59.90;;;;;;5028019;28;19921;-78
2023/08/16 01:23:53;;;;;;;;;;;21.30;59.90;;;;;;5034932;28;19898;-77
2023/08/16 01:26:28;;;;;;;;;;;21.30;59.90;;;;;;5033553;28;19920;-78
2023/08/16 01:28:54;;;;;;;;;;;21.30;59.90;;;;;;5033726;28;19914;-78
2023/08/16 01:31:20;;;;;;;;;;;21.30;60.00;;;;;;5030280;28;19981;-79
2023/08/16 01:33:45;;;;;;;;;;;21.20;60.10;;;;;;5026141;28;19921;-76
2023/08/16 01:36:11;;;;;;;;;;;21.20;60.20;;;;;;5027276;28;19921;-77
2023/08/16 01:38:45;;;;;;;;;;;21.20;60.30;;;;;;5030899;28;20059;-78
2023/08/16 01:41:11;;;;;;;;;;;21.20;60.40;;;;;;5033577;28;19924;-79
2023/08/16 01:43:37;;;;;;;;;;;21.10;60.50;;;;;;5024429;28;19972;-76
2023/08/16 01:46:04;;;;;;;;;;;21.10;60.60;;;;;;5012218;28;19921;-76
2023/08/16 01:48:31;;;;;;;;;;;21.00;60.60;;;;;;5028672;28;19922;-76
2023/08/16 01:50:57;;;;;;;;;;;21.00;60.50;;;;;;5009290;28;19984;-76
2023/08/16 01:53:30;;;;;;;;;;;21.00;60.40;;;;;;5009389;28;19940;-77
2023/08/16 01:55:55;;;;;;;;;;;21.00;60.50;;;;;;5014648;28;19976;-77
2023/08/16 01:58:21;;;;;;;;;;;21.00;60.50;;;;;;5015871;28;19944;-75
2023/08/16 02:00:46;;;;;;;;;;;21.00;60.60;;;;;;5031606;28;19939;-78
2023/08/16 02:03:12;;;;;;;;;;;20.90;60.70;;;;;;5012133;28;19988;-78
2023/08/16 02:05:37;;;;;;;;;;;20.90;60.80;;;;;;5029751;28;19917;-78
2023/08/16 02:08:03;;;;;;;;;;;21.00;60.90;;;;;;5029443;28;19917;-78
2023/08/16 02:10:28;;;;;;;;;;;20.90;60.80;;;;;;5028298;28;19910;-78
2023/08/16 02:12:54;;;;;;;;;;;21.00;60.90;;;;;;5027455;28;19917;-77
2023/08/16 02:15:20;;;;;;;;;;;21.00;60.80;;;;;;5025952;28;19960;-76
2023/08/16 02:17:45;;;;;;;;;;;21.00;61.00;;;;;;5027123;28;19918;-78
2023/08/16 02:20:12;;;;;;;;;;;21.00;61.00;;;;;;5025921;28;20425;-78
2023/08/16 02:22:38;;;;;;;;;;;21.00;61.10;;;;;;5025041;28;19963;-77
2023/08/16 02:25:03;;;;;;;;;;;21.00;61.10;;;;;;5007765;28;19909;-77
2023/08/16 02:27:31;;;;;;;;;;;21.00;61.20;;;;;;5023852;28;20016;-77
2023/08/16 02:29:57;;;;;;;;;;;21.00;61.60;;;;;;5025404;28;19910;-78
2023/08/16 02:32:23;;;;;;;;;;;21.00;62.20;;;;;;5025070;28;19943;-78
2023/08/16 02:34:48;;;;;;;;;;;21.00;62.30;;;;;;5006617;28;20016;-76
2023/08/16 02:37:14;;;;;;;;;;;21.00;62.30;;;;;;5018863;28;20013;-71
2023/08/16 02:39:39;;;;;;;;;;;21.00;62.20;;;;;;5011823;28;19921;-71
2023/08/16 02:42:05;;;;;;;;;;;21.00;62.20;;;;;;5011915;28;19923;-72
2023/08/16 02:44:30;;;;;;;;;;;20.90;62.00;;;;;;5011742;28;19947;-72
2023/08/16 02:46:56;;;;;;;;;;;20.90;62.00;;;;;;5012074;28;19917;-72
2023/08/16 02:49:21;;;;;;;;;;;20.90;61.90;;;;;;4994239;28;20296;-71
2023/08/16 02:51:47;;;;;;;;;;;20.90;61.90;;;;;;5023989;28;20277;-77
2023/08/16 02:54:13;;;;;;;;;;;20.90;62.00;;;;;;5006816;28;19910;-78
2023/08/16 02:56:39;;;;;;;;;;;20.80;62.00;;;;;;5025443;28;19914;-78
2023/08/16 02:59:04;;;;;;;;;;;20.80;62.30;;;;;;5007016;28;19917;-74
2023/08/16 03:01:30;;;;;;;;;;;20.80;62.30;;;;;;5025512;28;19909;-77
2023/08/16 03:03:55;;;;;;;;;;;20.90;62.40;;;;;;5024309;28;19959;-76
2023/08/16 03:06:21;;;;;;;;;;;20.90;62.40;;;;;;5023968;28;19977;-74
2023/08/16 03:08:46;;;;;;;;;;;21.00;62.20;;;;;;5023829;28;19917;-78
2023/08/16 03:11:12;;;;;;;;;;;21.00;62.30;;;;;;5027488;28;19910;-78
2023/08/16 03:13:37;;;;;;;;;;;20.90;62.30;;;;;;5029394;28;19918;-77
2023/08/16 03:16:03;;;;;;;;;;;20.90;62.20;;;;;;5011543;28;19947;-78
2023/08/16 03:18:28;;;;;;;;;;;20.80;62.20;;;;;;5028993;28;20256;-77
2023/08/16 03:20:54;;;;;;;;;;;20.80;62.20;;;;;;5027355;28;19944;-78
2023/08/16 03:23:19;;;;;;;;;;;20.80;62.10;;;;;;5009190;28;20330;-78
2023/08/16 03:25:45;;;;;;;;;;;20.80;62.10;;;;;;5027285;28;20008;-78
2023/08/16 03:28:10;;;;;;;;;;;20.80;62.10;;;;;;5026920;28;19945;-77
2023/08/16 03:30:36;;;;;;;;;;;20.70;62.00;;;;;;5028328;28;19916;-77
2023/08/16 03:33:01;;;;;;;;;;;20.70;62.00;;;;;;5030150;28;19989;-78
2023/08/16 03:35:27;;;;;;;;;;;20.70;62.10;;;;;;5031690;28;19916;-78
2023/08/16 03:37:52;;;;;;;;;;;20.70;62.20;;;;;;5013370;28;19918;-77
2023/08/16 03:40:17;;;;;;;;;;;20.70;62.20;;;;;;5030413;28;19960;-78
2023/08/16 03:42:43;;;;;;;;;;;20.70;62.30;;;;;;5030119;28;19959;-77
2023/08/16 03:45:09;;;;;;;;;;;20.80;62.30;;;;;;5028226;28;19910;-78
2023/08/16 03:47:34;;;;;;;;;;;20.80;62.30;;;;;;5026668;28;19924;-77
2023/08/16 03:50:00;;;;;;;;;;;20.80;62.40;;;;;;5011369;28;20361;-76
2023/08/16 03:52:25;;;;;;;;;;;20.80;62.40;;;;;;5027701;28;20337;-76
2023/08/16 03:54:52;;;;;;;;;;;20.90;62.40;;;;;;5028546;28;19913;-77
2023/08/16 03:57:18;;;;;;;;;;;21.00;62.50;;;;;;5028859;28;19928;-78
2023/08/16 03:59:43;;;;;;;;;;;21.00;62.50;;;;;;5031022;28;19917;-73
2023/08/16 04:02:09;;;;;;;;;;;21.10;62.60;;;;;;5014533;28;19925;-72
2023/08/16 04:04:34;;;;;;;;;;;21.10;62.60;;;;;;5014814;28;19910;-72
2023/08/16 04:07:00;;;;;;;;;;;21.20;62.70;;;;;;5014812;28;20281;-73
2023/08/16 04:09:25;;;;;;;;;;;21.20;62.70;;;;;;5014412;28;19973;-72
2023/08/16 04:11:51;;;;;;;;;;;21.30;62.70;;;;;;5014513;28;19921;-73
2023/08/16 04:14:16;;;;;;;;;;;21.40;62.70;;;;;;5014688;28;19910;-72
2023/08/16 04:16:42;;;;;;;;;;;21.40;62.70;;;;;;5014508;28;19952;-72
2023/08/16 04:19:07;;;;;;;;;;;21.50;62.60;;;;;;5014290;28;19983;-72
2023/08/16 04:21:33;;;;;;;;;;;21.50;62.60;;;;;;4996064;28;19913;-72
2023/08/16 04:23:58;;;;;;;;;;;21.60;62.70;;;;;;5014212;28;19916;-72
2023/08/16 04:26:24;;;;;;;;;;;21.70;62.70;;;;;;5014201;28;20460;-72
2023/08/16 04:28:49;;;;;;;;;;;21.70;62.60;;;;;;5014920;28;19921;-72
2023/08/16 04:31:15;;;;;;;;;;;21.70;63.10;;;;;;5014110;28;19910;-72
2023/08/16 04:33:40;;;;;;;;;;;21.70;63.60;;;;;;4996578;28;19922;-72
2023/08/16 04:36:06;;;;;;;;;;;21.70;63.70;;;;;;5014008;28;19913;-72
2023/08/16 04:38:31;;;;;;;;;;;21.70;63.80;;;;;;5013724;28;19925;-72
2023/08/16 04:40:57;;;;;;;;;;;21.70;63.70;;;;;;4996314;28;19996;-72
2023/08/16 04:43:23;;;;;;;;;;;21.80;63.70;;;;;;5014390;28;19972;-72
2023/08/16 04:45:48;;;;;;;;;;;21.80;63.60;;;;;;5013727;28;19909;-71
2023/08/16 04:48:14;;;;;;;;;;;21.90;64.00;;;;;;5013992;28;20328;-72
2023/08/16 04:50:39;;;;;;;;;;;21.90;64.30;;;;;;5025063;28;19973;-77
2023/08/16 04:53:05;;;;;;;;;;;22.00;64.60;;;;;;5028681;28;19917;-75
2023/08/16 04:55:30;;;;;;;;;;;22.00;64.60;;;;;;5028656;28;20000;-76
2023/08/16 04:57:56;;;;;;;;;;;22.10;64.70;;;;;;5011882;28;19917;-76
2023/08/16 05:00:21;;;;;;;;;;;22.10;64.70;;;;;;5028350;28;19944;-76
2023/08/16 05:02:47;;;;;;;;;;;22.20;64.90;;;;;;5027888;28;19940;-77
2023/08/16 05:05:12;;;;;;;;;;;22.20;64.90;;;;;;5010885;28;19964;-75
2023/08/16 05:07:38;;;;;;;;;;;22.30;65.00;;;;;;5027893;28;19924;-76
2023/08/16 05:10:03;;;;;;;;;;;22.30;65.00;;;;;;5024800;28;20383;-72
2023/08/16 05:12:29;;;;;;;;;;;22.40;65.20;;;;;;5013305;28;19918;-72
2023/08/16 05:14:54;;;;;;;;;;;22.40;65.10;;;;;;5013675;28;19916;-72
2023/08/16 05:17:20;;;;;;;;;;;22.40;65.10;;;;;;5013518;28;19917;-71
2023/08/16 05:19:46;;;;;;;;;;;22.50;65.20;;;;;;5013169;28;19920;-71
2023/08/16 05:22:11;;;;;;;;;;;22.50;65.20;;;;;;5013266;28;19944;-72
2023/08/16 05:24:36;;;;;;;;;;;22.50;65.30;;;;;;5013219;28;19913;-72
2023/08/16 05:27:02;;;;;;;;;;;22.50;65.20;;;;;;5013575;28;19918;-71
2023/08/16 05:29:27;;;;;;;;;;;22.50;65.20;;;;;;4995440;28;19948;-71
2023/08/16 05:31:53;;;;;;;;;;;22.60;65.10;;;;;;5013163;28;19924;-71
2023/08/16 05:34:20;;;;;;;;;;;22.70;65.00;;;;;;5012035;28;19949;-71
2023/08/16 05:36:46;;;;;;;;;;;22.80;65.00;;;;;;4995413;28;20273;-71
2023/08/16 05:39:12;;;;;;;;;;;22.80;65.00;;;;;;5012837;28;19918;-71
2023/08/16 05:41:37;;;;;;;;;;;22.90;65.00;;;;;;4995298;28;19917;-73
2023/08/16 05:44:03;;;;;;;;;;;23.00;64.90;;;;;;5013168;28;19952;-71
2023/08/16 05:46:28;;;;;;;;;;;23.10;64.80;;;;;;5012775;28;20438;-71
2023/08/16 05:48:54;;;;;;;;;;;23.20;64.90;;;;;;5013366;28;20411;-71
2023/08/16 05:51:19;;;;;;;;;;;23.40;64.80;;;;;;4995139;28;19968;-71
2023/08/16 05:53:45;;;;;;;;;;;23.60;64.40;;;;;;4995167;28;20016;-71
2023/08/16 05:56:18;;;;;;;;;;;23.70;63.90;;;;;;5130175;27;19912;-71
2023/08/16 05:58:44;;;;;;;;;;;23.80;63.40;;;;;;5128680;28;20007;-71
2023/08/16 06:01:09;;;;;;;;;;;23.80;63.10;;;;;;5130599;27;20018;-71
2023/08/16 06:03:34;;;;;;;;;;;24.00;63.00;;;;;;5129896;27;19950;-70
2023/08/16 06:06:00;;;;;;;;;;;24.10;63.20;;;;;;5129787;27;19915;-71
2023/08/16 06:08:25;;;;;;;;;;;24.30;62.90;;;;;;5129849;27;19931;-70
2023/08/16 06:10:51;;;;;;;;;;;24.50;62.00;;;;;;5130169;27;19919;-71
2023/08/16 06:13:16;;;;;;;;;;;24.70;61.40;;;;;;5129801;27;19915;-71
2023/08/16 06:15:42;;;;;;;;;;;25.00;60.90;;;;;;5129677;27;19927;-70
2023/08/16 06:18:07;;;;;;;;;;;25.20;60.00;;;;;;5128652;28;19908;-70
2023/08/16 06:20:34;;;;;;;;;;;25.30;58.80;;;;;;5128488;27;20003;-70
2023/08/16 06:22:59;;;;;;;;;;;25.60;58.70;;;;;;5128262;28;19915;-70
2023/08/16 06:25:26;;;;;;;;;;;25.90;57.60;;;;;;5129613;27;19922;-70
2023/08/16 06:27:51;;;;;;;;;;;26.20;57.10;;;;;;5129498;27;19912;-71
2023/08/16 06:30:16;;;;;;;;;;;26.60;56.90;;;;;;5129307;27;19919;-71
2023/08/16 06:32:42;;;;;;;;;;;26.90;54.90;;;;;;5128608;28;19912;-70
2023/08/16 06:35:08;;;;;;;;;;;27.20;53.90;;;;;;5129425;27;20394;-70
2023/08/16 06:37:35;;;;;;;;;;;27.50;53.10;;;;;;5129281;27;19961;-70
2023/08/16 06:40:04;;;;;;;;;;;27.80;51.70;;;;;;5129088;27;19959;-70
2023/08/16 06:42:31;;;;;;;;;;;28.00;50.10;;;;;;5127865;27;20242;-70
2023/08/16 06:44:56;;;;;;;;;;;28.20;49.70;;;;;;5120447;27;19919;-70
2023/08/16 06:47:21;;;;;;;;;;;28.50;48.80;;;;;;5108483;28;20003;-71
2023/08/16 06:49:47;;;;;;;;;;;28.70;47.30;;;;;;5107347;28;19967;-70
2023/08/16 06:52:12;;;;;;;;;;;28.90;47.10;;;;;;5110119;28;19911;-70
2023/08/16 06:54:38;;;;;;;;;;;29.20;46.20;;;;;;5128632;27;20287;-71
2023/08/16 06:57:03;;;;;;;;;;;29.40;45.10;;;;;;5127641;28;19912;-70
2023/08/16 06:59:30;;;;;;;;;;;29.60;44.60;;;;;;5128868;27;19920;-70
2023/08/16 07:01:56;;;;;;;;;;;29.80;43.70;;;;;;5127031;27;20410;-70
2023/08/16 07:04:22;;;;;;;;;;;30.00;42.80;;;;;;5128748;27;19915;-71
2023/08/16 07:06:48;;;;;;;;;;;30.20;42.20;;;;;;5118742;27;19908;-70
2023/08/16 07:09:14;;;;;;;;;;;30.40;41.60;;;;;;5113582;27;19916;-70
2023/08/16 07:11:39;;;;;;;;;;;30.50;41.20;;;;;;5113534;28;19912;-70
2023/08/16 07:14:05;;;;;;;;;;;30.70;40.80;;;;;;5102199;28;19920;-72
2023/08/16 07:16:31;;;;;;;;;;;30.80;41.20;;;;;;5097684;28;19911;-70
2023/08/16 07:18:56;;;;;;;;;;;30.90;40.60;;;;;;5114232;28;20282;-70
2023/08/16 07:21:22;;;;;;;;;;;30.80;40.30;;;;;;5114835;28;19908;-70
2023/08/16 07:23:47;;;;;;;;;;;30.80;40.20;;;;;;5112123;27;19919;-71
2023/08/16 07:26:13;;;;;;;;;;;30.80;40.80;;;;;;5114557;28;19916;-70
2023/08/16 07:28:38;;;;;;;;;;;31.00;41.10;;;;;;5100070;28;20006;-70
2023/08/16 07:31:03;;;;;;;;;;;31.20;41.20;;;;;;5093247;28;20356;-78
2023/08/16 07:33:32;;;;;;;;;;;31.50;40.60;;;;;;5094086;28;19967;-79
2023/08/16 07:36:04;;;;;;;;;;;31.80;40.00;;;;;;5094602;28;19927;-77
2023/08/16 07:38:30;;;;;;;;;;;31.90;39.40;;;;;;5099525;28;19919;-78
2023/08/16 07:40:55;;;;;;;;;;;31.80;38.90;;;;;;5114525;28;19922;-78
2023/08/16 07:43:21;;;;;;;;;;;31.70;38.70;;;;;;5111173;28;20302;-77
2023/08/16 07:45:50;;;;;;;;;;;31.60;38.70;;;;;;5098719;28;19920;-78
2023/08/16 07:48:18;;;;;;;;;;;31.30;39.00;;;;;;5095081;28;19908;-78
2023/08/16 07:50:45;;;;;;;;;;;31.20;39.00;;;;;;5091901;28;20429;-79
2023/08/16 07:53:11;;;;;;;;;;;31.00;39.30;;;;;;5103549;28;19919;-79
2023/08/16 07:55:37;;;;;;;;;;;30.80;40.00;;;;;;5113839;28;19980;-78
2023/08/16 07:58:02;;;;;;;;;;;31.00;40.50;;;;;;5112628;28;20002;-78
2023/08/16 08:00:29;;;;;;;;;;;31.30;40.20;;;;;;5109422;28;20382;-78
2023/08/16 08:02:55;;;;;;;;;;;31.60;39.60;;;;;;5093992;28;20285;-78
2023/08/16 08:05:21;;;;;;;;;;;31.70;39.60;;;;;;5095723;28;19916;-77
2023/08/16 08:07:47;;;;;;;;;;;31.80;39.30;;;;;;5094608;27;20390;-78
2023/08/16 08:10:14;;;;;;;;;;;31.80;39.10;;;;;;5093947;28;19916;-78
2023/08/16 08:12:39;;;;;;;;;;;32.10;39.90;;;;;;5093394;28;20371;-78
2023/08/16 08:15:05;;;;;;;;;;;32.70;39.00;;;;;;5096841;28;19993;-77
2023/08/16 08:17:31;;;;;;;;;;;33.00;37.90;;;;;;5093758;28;19961;-79
2023/08/16 08:19:56;;;;;;;;;;;33.10;37.00;;;;;;5093698;28;20325;-74
2023/08/16 08:22:22;;;;;;;;;;;33.30;36.60;;;;;;5110109;28;20278;-78
2023/08/16 08:24:47;;;;;;;;;;;33.50;36.30;;;;;;5102849;28;19920;-78
2023/08/16 08:27:13;;;;;;;;;;;33.70;36.30;;;;;;5114488;28;19956;-77
2023/08/16 08:29:39;;;;;;;;;;;34.00;35.90;;;;;;5101593;28;19945;-79
2023/08/16 08:32:05;;;;;;;;;;;34.30;34.80;;;;;;5096095;28;19919;-74
2023/08/16 08:34:31;;;;;;;;;;;34.60;35.00;;;;;;5099178;28;19923;-77
2023/08/16 08:36:57;;;;;;;;;;;35.00;34.50;;;;;;5095538;28;19927;-78
2023/08/16 08:39:22;;;;;;;;;;;35.20;34.10;;;;;;5095307;28;19927;-78
2023/08/16 08:41:48;;;;;;;;;;;35.50;33.80;;;;;;5097199;28;19920;-78
2023/08/16 08:44:17;;;;;;;;;;;35.90;33.30;;;;;;5106681;27;20039;-79
2023/08/16 08:46:44;;;;;;;;;;;36.30;33.40;;;;;;5093059;28;20291;-79
2023/08/16 08:49:10;;;;;;;;;;;36.70;32.60;;;;;;5112225;28;19969;-78
2023/08/16 08:51:36;;;;;;;;;;;36.90;31.80;;;;;;5110914;28;19908;-78
2023/08/16 08:54:02;;;;;;;;;;;37.20;31.40;;;;;;5108065;28;20014;-79
2023/08/16 08:56:28;;;;;;;;;;;37.40;31.00;;;;;;5105540;28;20011;-78
2023/08/16 08:58:55;;;;;;;;;;;37.60;31.10;;;;;;5095644;28;19912;-80
2023/08/16 09:01:22;;;;;;;;;;;37.70;30.40;;;;;;5092195;28;19999;-78
2023/08/16 09:03:48;;;;;;;;;;;37.90;30.70;;;;;;5097725;28;19908;-78
2023/08/16 09:06:14;;;;;;;;;;;37.90;30.00;;;;;;5099981;28;19916;-79
2023/08/16 09:08:41;;;;;;;;;;;37.90;30.10;;;;;;5098396;28;19918;-79
2023/08/16 09:11:06;;;;;;;;;;;38.00;30.00;;;;;;5111017;28;19926;-75
2023/08/16 09:13:32;;;;;;;;;;;38.10;30.20;;;;;;5108068;28;19916;-77
2023/08/16 09:15:59;;;;;;;;;;;38.30;29.40;;;;;;5110437;28;19943;-78
2023/08/16 09:18:26;;;;;;;;;;;38.10;29.40;;;;;;5098917;28;19943;-78
2023/08/16 09:20:52;;;;;;;;;;;37.80;29.30;;;;;;5113629;28;19916;-78
2023/08/16 09:23:18;;;;;;;;;;;37.40;29.40;;;;;;5106813;28;19941;-78
2023/08/16 09:25:46;;;;;;;;;;;37.20;30.00;;;;;;5113500;28;20002;-75
2023/08/16 09:28:14;;;;;;;;;;;36.80;30.50;;;;;;5108406;28;20360;-77
2023/08/16 09:30:43;;;;;;;;;;;36.70;30.40;;;;;;5109761;28;19920;-78
2023/08/16 09:33:12;;;;;;;;;;;36.30;30.60;;;;;;5112600;28;20366;-78
2023/08/16 09:35:38;;;;;;;;;;;36.10;31.40;;;;;;5110096;28;19927;-77
2023/08/16 09:38:04;;;;;;;;;;;36.30;31.90;;;;;;5107940;28;19958;-76
2023/08/16 09:40:29;;;;;;;;;;;36.30;31.20;;;;;;5099612;28;20348;-78
2023/08/16 09:42:59;;;;;;;;;;;36.10;31.10;;;;;;5101548;28;20347;-76
2023/08/16 09:45:30;;;;;;;;;;;35.80;31.60;;;;;;5099874;28;19969;-76
2023/08/16 09:47:56;;;;;;;;;;;35.70;31.70;;;;;;5100124;28;19969;-77
2023/08/16 09:50:23;;;;;;;;;;;35.30;32.10;;;;;;5104088;28;20375;-77
2023/08/16 09:52:50;;;;;;;;;;;35.10;32.60;;;;;;5091735;28;20003;-77
2023/08/16 09:55:24;;;;;;;;;;;34.90;33.00;;;;;;5091363;28;20379;-77
2023/08/16 09:57:49;;;;;;;;;;;34.80;33.30;;;;;;5098239;28;20439;-77
2023/08/16 10:00:16;;;;;;;;;;;34.60;33.20;;;;;;5098504;28;19916;-76
2023/08/16 10:02:42;;;;;;;;;;;34.30;33.70;;;;;;5102484;28;19918;-74
2023/08/16 10:05:08;;;;;;;;;;;34.10;34.20;;;;;;5100129;28;19925;-77
2023/08/16 10:07:33;;;;;;;;;;;33.90;34.50;;;;;;5090930;28;19957;-78
2023/08/16 10:09:59;;;;;;;;;;;33.70;34.70;;;;;;5102833;28;20010;-77
2023/08/16 10:12:25;;;;;;;;;;;33.40;35.30;;;;;;5105809;28;19922;-77
2023/08/16 10:14:51;;;;;;;;;;;33.30;35.70;;;;;;5111668;28;19927;-76
2023/08/16 10:17:18;;;;;;;;;;;33.30;36.10;;;;;;5107934;28;19908;-78
2023/08/16 10:19:47;;;;;;;;;;;33.40;35.90;;;;;;5101237;28;19915;-75
2023/08/16 10:22:19;;;;;;;;;;;33.40;36.00;;;;;;5110988;28;19918;-79
2023/08/16 10:24:45;;;;;;;;;;;33.30;35.40;;;;;;5106977;28;20025;-76
2023/08/16 10:27:12;;;;;;;;;;;33.00;35.90;;;;;;5091653;28;20018;-80
2023/08/16 10:29:38;;;;;;;;;;;32.70;36.40;;;;;;5109031;28;20335;-78
2023/08/16 10:32:09;;;;;;;;;;;32.50;36.80;;;;;;5110263;28;19938;-78
2023/08/16 10:34:35;;;;;;;;;;;32.30;37.20;;;;;;5112296;28;19920;-77
2023/08/16 10:37:01;;;;;;;;;;;32.10;37.30;;;;;;5111266;28;19919;-77
2023/08/16 10:39:29;;;;;;;;;;;31.80;38.00;;;;;;5111976;28;20247;-77
2023/08/16 10:42:05;;;;;;;;;;;31.80;38.20;;;;;;5104850;28;19912;-77
2023/08/16 10:44:31;;;;;;;;;;;31.70;38.00;;;;;;5094832;28;20363;-77
2023/08/16 10:46:56;;;;;;;;;;;31.30;38.30;;;;;;5094872;28;19938;-69
2023/08/16 10:49:22;;;;;;;;;;;31.20;38.60;;;;;;5093077;28;20375;-69
2023/08/16 10:51:52;;;;;;;;;;;31.20;39.30;;;;;;5097763;28;20004;-69
2023/08/16 10:54:19;;;;;;;;;;;31.50;39.50;;;;;;5110680;28;20385;-69
2023/08/16 10:56:47;;;;;;;;;;;31.90;39.00;;;;;;5114998;28;19908;-69
2023/08/16 10:59:13;;;;;;;;;;;32.30;38.00;;;;;;5096668;28;19916;-69
2023/08/16 11:01:49;;;;;;;;;;;32.70;36.90;;;;;;5093904;28;20304;-70
2023/08/16 11:04:14;;;;;;;;;;;32.80;36.60;;;;;;5093522;28;19916;-70
2023/08/16 11:06:40;;;;;;;;;;;33.10;36.30;;;;;;5094490;28;20329;-70
2023/08/16 11:09:09;;;;;;;;;;;33.30;36.50;;;;;;5094057;28;22310;-70
2023/08/16 11:11:35;;;;;;;;;;;33.70;36.20;;;;;;5094317;28;20429;-70
2023/08/16 11:14:01;;;;;;;;;;;34.20;36.00;;;;;;5092427;28;19916;-72
2023/08/16 11:16:30;;;;;;;;;;;34.50;35.00;;;;;;5093459;28;20414;-70
2023/08/16 11:18:59;;;;;;;;;;;34.50;34.80;;;;;;5092488;28;19908;-71
2023/08/16 11:21:25;;;;;;;;;;;34.40;34.50;;;;;;5106608;28;20352;-70
2023/08/16 11:23:53;;;;;;;;;;;34.20;34.80;;;;;;5108736;28;19973;-72
2023/08/16 11:26:18;;;;;;;;;;;34.20;35.40;;;;;;5105971;28;20003;-70
2023/08/16 11:28:44;;;;;;;;;;;34.20;35.00;;;;;;5099779;28;19943;-70
2023/08/16 11:31:09;;;;;;;;;;;34.20;34.90;;;;;;5093479;28;19970;-69
2023/08/16 11:33:43;;;;;;;;;;;34.00;35.20;;;;;;5108861;28;19983;-69
2023/08/16 11:36:09;;;;;;;;;;;33.80;35.20;;;;;;5113800;27;19927;-69
2023/08/16 11:38:35;;;;;;;;;;;33.40;35.40;;;;;;5112845;28;19915;-69
2023/08/16 11:41:01;;;;;;;;;;;32.90;36.00;;;;;;5114007;28;20316;-69
2023/08/16 11:43:27;;;;;;;;;;;32.60;36.70;;;;;;5109853;28;20414;-69
2023/08/16 11:45:53;;;;;;;;;;;32.40;37.40;;;;;;5097131;28;19961;-69
2023/08/16 11:48:18;;;;;;;;;;;32.20;37.40;;;;;;5113006;28;19908;-70
2023/08/16 11:50:44;;;;;;;;;;;31.80;37.90;;;;;;5113858;28;19907;-70
2023/08/16 11:53:14;;;;;;;;;;;31.70;38.40;;;;;;5105538;27;19919;-69
2023/08/16 11:55:41;;;;;;;;;;;31.50;38.60;;;;;;5113611;28;19916;-70
2023/08/16 11:58:08;;;;;;;;;;;31.40;38.60;;;;;;5110425;28;20028;-70
2023/08/16 12:00:34;;;;;;;;;;;31.10;39.00;;;;;;5113837;28;19931;-70
2023/08/16 12:03:03;;;;;;;;;;;30.90;39.50;;;;;;5109945;28;19919;-72
2023/08/16 12:05:35;;;;;;;;;;;30.80;39.60;;;;;;5111113;28;19964;-69
2023/08/16 12:08:05;;;;;;;;;;;30.60;40.00;;;;;;5111998;28;19958;-69
2023/08/16 12:10:32;;;;;;;;;;;30.40;40.40;;;;;;5100024;28;19922;-77
2023/08/16 12:12:58;;;;;;;;;;;30.30;40.70;;;;;;5106457;28;20010;-77
2023/08/16 12:15:25;;;;;;;;;;;30.20;41.00;;;;;;5109809;28;20055;-79
2023/08/16 12:17:51;;;;;;;;;;;30.20;41.10;;;;;;5107581;28;19922;-77
2023/08/16 12:20:17;;;;;;;;;;;30.30;41.40;;;;;;5101190;28;19935;-78
2023/08/16 12:22:46;;;;;;;;;;;30.60;41.50;;;;;;5104083;27;19921;-78
2023/08/16 12:25:11;;;;;;;;;;;30.80;40.90;;;;;;5100790;28;19916;-74
2023/08/16 12:27:37;;;;;;;;;;;31.00;40.70;;;;;;5103762;28;19939;-79
2023/08/16 12:30:04;;;;;;;;;;;31.10;40.40;;;;;;5091471;28;19913;-78
2023/08/16 12:32:30;;;;;;;;;;;31.20;40.40;;;;;;5097649;28;19919;-76
2023/08/16 12:34:56;;;;;;;;;;;31.20;40.10;;;;;;5112013;28;19972;-76
2023/08/16 12:37:21;;;;;;;;;;;31.20;40.20;;;;;;5111257;28;19969;-75
2023/08/16 12:39:47;;;;;;;;;;;31.30;40.30;;;;;;5112878;28;19998;-76
2023/08/16 12:42:12;;;;;;;;;;;31.60;40.40;;;;;;5109765;28;19930;-77
2023/08/16 12:44:38;;;;;;;;;;;31.90;39.90;;;;;;5103104;28;19912;-76
2023/08/16 12:47:04;;;;;;;;;;;32.10;39.50;;;;;;5101723;28;20228;-77
2023/08/16 12:49:29;;;;;;;;;;;32.30;39.10;;;;;;5109024;28;20401;-78
2023/08/16 12:51:54;;;;;;;;;;;32.40;38.80;;;;;;5101238;28;19920;-76
2023/08/16 12:54:20;;;;;;;;;;;32.30;38.80;;;;;;5109489;28;19919;-77
2023/08/16 12:56:46;;;;;;;;;;;32.40;38.40;;;;;;5107949;28;19939;-76
2023/08/16 12:59:12;;;;;;;;;;;32.30;38.40;;;;;;5097853;28;19912;-78
2023/08/16 13:01:38;;;;;;;;;;;32.20;38.60;;;;;;5106791;28;19916;-79
2023/08/16 13:04:03;;;;;;;;;;;32.20;38.60;;;;;;5108122;28;19918;-78
2023/08/16 13:06:29;;;;;;;;;;;32.10;38.80;;;;;;5110092;28;19963;-79
2023/08/16 13:08:54;;;;;;;;;;;32.20;38.70;;;;;;5092118;28;19961;-78
2023/08/16 13:11:20;;;;;;;;;;;32.10;38.50;;;;;;5095954;28;19924;-76
2023/08/16 13:13:45;;;;;;;;;;;31.90;38.60;;;;;;5104876;28;19978;-76
2023/08/16 13:16:11;;;;;;;;;;;31.70;39.20;;;;;;5094838;28;20066;-76
2023/08/16 13:18:37;;;;;;;;;;;31.60;39.70;;;;;;5097839;28;19908;-77
2023/08/16 13:21:03;;;;;;;;;;;31.50;39.90;;;;;;5112773;28;19908;-77
2023/08/16 13:23:29;;;;;;;;;;;31.40;40.00;;;;;;5105117;28;19991;-76
2023/08/16 13:25:54;;;;;;;;;;;31.40;39.80;;;;;;5108647;28;20383;-77
2023/08/16 13:28:20;;;;;;;;;;;31.20;40.20;;;;;;5097511;28;20448;-77
2023/08/16 13:30:47;;;;;;;;;;;31.20;40.50;;;;;;5098835;28;19923;-78
2023/08/16 13:33:13;;;;;;;;;;;31.10;40.60;;;;;;5099744;28;19947;-76
2023/08/16 13:35:45;;;;;;;;;;;31.20;40.70;;;;;;5110618;28;20385;-76
2023/08/16 13:38:11;;;;;;;;;;;31.10;40.90;;;;;;5111612;28;19966;-76
2023/08/16 13:40:38;;;;;;;;;;;31.00;40.90;;;;;;5112301;28;20373;-77
2023/08/16 13:43:04;;;;;;;;;;;30.90;41.10;;;;;;5106753;28;19924;-77
2023/08/16 13:45:29;;;;;;;;;;;30.80;41.20;;;;;;5111816;28;20332;-77
2023/08/16 13:47:58;;;;;;;;;;;30.70;41.60;;;;;;5103320;28;19916;-77
2023/08/16 13:50:23;;;;;;;;;;;30.70;41.60;;;;;;5102967;28;20348;-77
2023/08/16 13:52:49;;;;;;;;;;;30.70;41.70;;;;;;5094612;28;20049;-77
2023/08/16 13:55:16;;;;;;;;;;;30.60;41.60;;;;;;5093432;28;19916;-77
2023/08/16 13:57:42;;;;;;;;;;;30.50;41.70;;;;;;5094561;28;19920;-76
2023/08/16 14:00:09;;;;;;;;;;;30.50;41.90;;;;;;5106229;28;19908;-77
2023/08/16 14:02:35;;;;;;;;;;;30.50;41.50;;;;;;5106959;28;19923;-77
2023/08/16 14:05:01;;;;;;;;;;;30.50;41.50;;;;;;5110504;28;20507;-78
2023/08/16 14:07:26;;;;;;;;;;;30.70;41.30;;;;;;5094688;28;19974;-77
2023/08/16 14:09:52;;;;;;;;;;;30.70;41.40;;;;;;5092019;28;19908;-78